createdAt,value
2018-03-07T00:00:07.352Z,9.35
2018-03-07T00:02:35.053Z,12.32
2018-03-07T00:05:02.717Z,10.68
2018-03-07T00:07:30.274Z,10.90
2018-03-07T00:09:57.836Z,13.30
2018-03-07T00:12:25.498Z,14.10
2018-03-07T00:14:52.973Z,13.27
2018-03-07T00:17:20.731Z,12.27
2018-03-07T00:19:48.175Z,12.45
2018-03-07T00:22:15.632Z,22.45
2018-03-07T00:24:43.268Z,17.10
2018-03-07T00:27:10.992Z,14.20
2018-03-07T00:29:39.049Z,12.40
2018-03-07T00:32:06.810Z,24.63
2018-03-07T00:34:34.578Z,13.27
2018-03-07T00:37:02.296Z,12.88
2018-03-07T00:39:30.415Z,13.23
2018-03-07T00:41:58.187Z,11.52
2018-03-07T00:44:26.700Z,11.18
2018-03-07T00:46:55.238Z,10.50
2018-03-07T00:49:22.911Z,11.12
2018-03-07T00:51:50.630Z,10.30
2018-03-07T00:54:18.407Z,12.32
2018-03-07T00:56:46.165Z,10.52
2018-03-07T00:59:13.655Z,14.43
2018-03-07T01:01:41.187Z,12.95
2018-03-07T01:04:08.978Z,12.60
2018-03-07T01:06:36.422Z,10.43
2018-03-07T01:09:04.081Z,11.88
2018-03-07T01:11:31.658Z,14.30
2018-03-07T01:13:59.303Z,9.07
2018-03-07T01:16:27.060Z,9.15
2018-03-07T01:18:54.807Z,11.48
2018-03-07T01:21:22.499Z,12.93
2018-03-07T01:23:50.307Z,11.68
2018-03-07T01:26:18.528Z,11.63
2018-03-07T01:28:46.626Z,10.07
2018-03-07T01:31:14.387Z,13.45
2018-03-07T01:33:42.055Z,10.60
2018-03-07T01:36:09.911Z,12.40
2018-03-07T01:38:37.679Z,18.02
2018-03-07T01:41:05.301Z,9.40
2018-03-07T01:43:33.210Z,37.10
2018-03-07T01:46:00.829Z,11.27
2018-03-07T01:48:28.430Z,295.52
2018-03-07T01:50:56.062Z,415.02
2018-03-07T01:53:23.839Z,504.23
2018-03-07T01:55:51.903Z,427.90
2018-03-07T01:58:19.794Z,16.52
2018-03-07T02:00:47.240Z,140.45
2018-03-07T02:03:14.745Z,221.87
2018-03-07T02:05:42.576Z,121.85
2018-03-07T02:08:10.240Z,474.88
2018-03-07T02:10:38.098Z,297.63
2018-03-07T02:13:05.559Z,185.70
2018-03-07T02:15:33.218Z,50.90
2018-03-07T02:18:01.475Z,69.20
2018-03-07T02:20:29.034Z,312.20
2018-03-07T02:22:56.699Z,67.12
2018-03-07T02:25:24.461Z,9.45
2018-03-07T02:27:52.062Z,9.38
2018-03-07T02:30:20.112Z,24.45
2018-03-07T02:32:48.103Z,79.40
2018-03-07T02:35:15.648Z,31.50
2018-03-07T02:37:43.283Z,24.08
2018-03-07T02:40:11.171Z,34.45
2018-03-07T02:42:38.939Z,11.85
2018-03-07T02:45:06.728Z,18.15
2018-03-07T02:47:34.351Z,17.55
2018-03-07T02:50:01.839Z,11.40
2018-03-07T02:52:30.234Z,92.00
2018-03-07T02:54:57.683Z,13.00
2018-03-07T02:57:25.514Z,17.00
2018-03-07T02:59:53.591Z,14.35
2018-03-07T03:02:21.267Z,29.33
2018-03-07T03:04:48.718Z,11.40
2018-03-07T03:07:16.574Z,15.63
2018-03-07T03:09:44.213Z,12.82
2018-03-07T03:12:12.027Z,10.55
2018-03-07T03:14:39.740Z,11.18
2018-03-07T03:17:07.625Z,8.80
2018-03-07T03:19:35.697Z,33.67
2018-03-07T03:22:03.466Z,11.98
2018-03-07T03:24:31.211Z,11.05
2018-03-07T03:26:58.683Z,28.02
2018-03-07T03:29:26.679Z,18.27
2018-03-07T03:31:54.710Z,8.13
2018-03-07T03:34:22.241Z,14.80
2018-03-07T03:36:50.575Z,14.02
2018-03-07T03:39:18.306Z,13.93
2018-03-07T03:41:46.189Z,13.60
2018-03-07T03:44:13.642Z,12.95
2018-03-07T03:46:41.071Z,8.80
2018-03-07T03:49:08.575Z,13.57
2018-03-07T03:51:36.335Z,9.52
2018-03-07T03:54:04.093Z,12.10
2018-03-07T03:56:31.866Z,12.65
2018-03-07T03:58:59.314Z,10.13
2018-03-07T04:01:26.968Z,24.42
2018-03-07T04:03:54.537Z,11.20
2018-03-07T04:06:22.298Z,12.60
2018-03-07T04:08:49.761Z,14.73
2018-03-07T04:11:21.401Z,16.92
2018-03-07T04:13:49.198Z,103.55
2018-03-07T04:16:16.642Z,224.20
2018-03-07T04:18:44.384Z,138.65
2018-03-07T04:21:11.961Z,101.80
2018-03-07T04:23:39.912Z,17.33
2018-03-07T04:26:07.525Z,17.85
2018-03-07T04:28:35.254Z,191.00
2018-03-07T04:31:02.705Z,285.83
2018-03-07T04:33:31.702Z,21.00
2018-03-07T04:35:59.341Z,30.77
2018-03-07T04:38:27.418Z,113.12
2018-03-07T04:40:55.004Z,25.33
2018-03-07T04:43:22.467Z,15.65
2018-03-07T04:45:50.219Z,16.27
2018-03-07T04:48:17.686Z,14.30
2018-03-07T04:50:45.316Z,423.75
2018-03-07T04:53:12.768Z,451.45
2018-03-07T04:55:40.364Z,12.57
2018-03-07T04:58:08.409Z,8.65
2018-03-07T05:00:36.093Z,15.77
2018-03-07T05:03:03.541Z,10.75
2018-03-07T05:05:30.986Z,147.23
2018-03-07T05:07:58.866Z,18.10
2018-03-07T05:10:26.519Z,16.23
2018-03-07T05:12:54.270Z,11.57
2018-03-07T05:15:21.753Z,9.35
2018-03-07T05:17:49.211Z,16.83
2018-03-07T05:20:17.682Z,8.25
2018-03-07T05:22:45.742Z,8.55
2018-03-07T05:25:13.403Z,13.15
2018-03-07T05:27:40.974Z,9.88
2018-03-07T05:30:08.737Z,14.40
2018-03-07T05:32:36.220Z,9.70
2018-03-07T05:35:03.692Z,9.50
2018-03-07T05:37:31.122Z,9.35
2018-03-07T05:39:58.570Z,8.57
2018-03-07T05:42:26.314Z,15.13
2018-03-07T05:44:53.754Z,14.43
2018-03-07T05:47:21.461Z,9.63
2018-03-07T05:49:49.330Z,13.60
2018-03-07T05:52:16.771Z,152.45
2018-03-07T05:54:44.750Z,8.93
2018-03-07T05:57:12.210Z,8.73
2018-03-07T05:59:39.935Z,22.40
2018-03-07T06:02:07.734Z,18.00
2018-03-07T06:04:35.194Z,15.23
2018-03-07T06:07:02.678Z,13.35
2018-03-07T06:09:30.126Z,15.43
2018-03-07T06:11:57.567Z,14.15
2018-03-07T06:14:25.363Z,12.95
2018-03-07T06:16:52.790Z,21.90
2018-03-07T06:19:20.237Z,9.55
2018-03-07T06:21:47.975Z,13.68
2018-03-07T06:26:48.749Z,13.68
2018-03-07T06:29:16.340Z,15.75
2018-03-07T06:31:43.937Z,8.48
2018-03-07T06:34:11.582Z,16.27
2018-03-07T06:36:39.014Z,10.40
2018-03-07T06:39:06.763Z,28.35
2018-03-07T06:41:34.562Z,16.65
2018-03-07T06:44:02.606Z,13.80
2018-03-07T06:46:30.053Z,10.80
2018-03-07T06:48:57.727Z,13.05
2018-03-07T06:51:25.587Z,20.25
2018-03-07T06:53:53.348Z,25.12
2018-03-07T06:56:20.809Z,11.90
2018-03-07T06:58:48.247Z,12.68
2018-03-07T07:01:15.895Z,9.73
2018-03-07T07:03:43.626Z,30.98
2018-03-07T07:06:11.144Z,20.50
2018-03-07T07:08:38.606Z,77.25
2018-03-07T07:11:06.167Z,23.15
2018-03-07T07:13:34.233Z,45.45
2018-03-07T07:16:01.696Z,14.30
2018-03-07T07:18:29.445Z,55.33
2018-03-07T07:20:57.525Z,66.60
2018-03-07T07:23:25.596Z,208.65
2018-03-07T07:25:53.047Z,114.90
2018-03-07T07:28:20.809Z,29.05
2018-03-07T07:30:48.255Z,81.75
2018-03-07T07:33:15.941Z,15.68
2018-03-07T07:35:43.385Z,58.50
2018-03-07T07:38:11.046Z,16.92
2018-03-07T07:40:38.710Z,18.25
2018-03-07T07:43:06.481Z,15.45
2018-03-07T07:45:35.473Z,11.48
2018-03-07T07:48:04.322Z,8.25
2018-03-07T07:50:31.766Z,14.48
2018-03-07T07:53:00.165Z,13.43
2018-03-07T07:55:27.968Z,19.92
2018-03-07T07:57:55.483Z,7.70
2018-03-07T08:00:23.250Z,38.25
2018-03-07T08:02:50.677Z,12.63
2018-03-07T08:05:18.414Z,9.93
2018-03-07T08:07:46.269Z,9.63
2018-03-07T08:10:13.952Z,9.15
2018-03-07T08:12:41.388Z,8.25
2018-03-07T08:15:09.451Z,14.45
2018-03-07T08:17:36.923Z,15.90
2018-03-07T08:20:04.795Z,74.93
2018-03-07T08:22:32.555Z,42.97
2018-03-07T08:25:00.006Z,108.65
2018-03-07T08:27:27.454Z,13.90
2018-03-07T08:29:55.412Z,85.60
2018-03-07T08:32:22.890Z,10.25
2018-03-07T08:34:50.658Z,54.38
2018-03-07T08:37:18.128Z,70.28
2018-03-07T08:39:45.976Z,13.65
2018-03-07T08:42:13.915Z,14.75
2018-03-07T08:44:41.515Z,21.75
2018-03-07T08:47:09.186Z,123.65
2018-03-07T08:49:36.642Z,69.00
2018-03-07T08:52:04.091Z,12.35
2018-03-07T08:54:31.638Z,69.85
2018-03-07T08:56:59.082Z,68.45
2018-03-07T08:59:26.525Z,31.83
2018-03-07T09:01:54.114Z,117.68
2018-03-07T09:04:21.558Z,332.27
2018-03-07T09:06:49.116Z,85.70
2018-03-07T09:09:17.475Z,15.38
2018-03-07T09:11:45.275Z,114.12
2018-03-07T09:14:13.146Z,17.37
2018-03-07T09:16:40.911Z,118.43
2018-03-07T09:19:08.350Z,125.12
2018-03-07T09:21:36.019Z,439.30
2018-03-07T09:24:03.588Z,14.18
2018-03-07T09:26:31.354Z,148.68
2018-03-07T09:28:59.087Z,82.75
2018-03-07T09:31:26.775Z,104.07
2018-03-07T09:33:54.199Z,208.23
2018-03-07T09:36:21.795Z,103.47
2018-03-07T09:38:49.866Z,110.05
2018-03-07T09:41:17.635Z,76.65
2018-03-07T09:43:45.327Z,85.35
2018-03-07T09:46:12.771Z,65.95
2018-03-07T09:48:40.256Z,214.10
2018-03-07T09:51:08.078Z,117.85
2018-03-07T09:53:35.830Z,34.40
2018-03-07T09:56:03.795Z,200.25
2018-03-07T09:58:31.419Z,111.57
2018-03-07T10:00:59.054Z,20.20
2018-03-07T10:03:27.136Z,62.47
2018-03-07T10:05:54.599Z,187.27
2018-03-07T10:08:22.125Z,62.67
2018-03-07T10:10:49.585Z,137.15
2018-03-07T10:13:17.339Z,187.12
2018-03-07T10:15:45.010Z,31.02
2018-03-07T10:18:12.596Z,46.55
2018-03-07T10:20:40.832Z,39.72
2018-03-07T10:23:08.270Z,127.62
2018-03-07T10:25:36.346Z,43.42
2018-03-07T10:28:03.801Z,188.20
2018-03-07T10:30:31.862Z,21.17
2018-03-07T10:32:59.319Z,147.40
2018-03-07T10:35:27.202Z,35.53
2018-03-07T10:37:54.847Z,52.88
2018-03-07T10:40:22.349Z,98.28
2018-03-07T10:42:49.890Z,12.63
2018-03-07T10:45:17.650Z,40.30
2018-03-07T10:47:45.726Z,138.75
2018-03-07T10:50:13.364Z,77.05
2018-03-07T10:52:40.831Z,258.00
2018-03-07T10:55:08.282Z,210.63
2018-03-07T10:57:35.746Z,114.00
2018-03-07T11:00:03.190Z,95.45
2018-03-07T11:02:31.279Z,94.18
2018-03-07T11:04:58.855Z,22.17
2018-03-07T11:07:26.626Z,80.65
2018-03-07T11:09:54.349Z,23.42
2018-03-07T11:12:22.022Z,52.43
2018-03-07T11:14:49.902Z,28.47
2018-03-07T11:17:17.675Z,15.83
2018-03-07T11:19:45.294Z,24.10
2018-03-07T11:22:13.080Z,58.70
2018-03-07T11:24:40.650Z,18.90
2018-03-07T11:27:08.304Z,32.87
2018-03-07T11:29:36.191Z,39.27
2018-03-07T11:32:03.641Z,35.13
2018-03-07T11:34:31.342Z,17.73
2018-03-07T11:36:59.050Z,43.07
2018-03-07T11:39:26.503Z,76.33
2018-03-07T11:41:54.397Z,41.53
2018-03-07T11:44:22.043Z,34.63
2018-03-07T11:46:49.789Z,33.77
2018-03-07T11:49:17.279Z,85.47
2018-03-07T11:51:44.750Z,81.17
2018-03-07T11:54:12.462Z,36.20
2018-03-07T11:56:39.922Z,496.10
2018-03-07T11:59:07.700Z,804.53
2018-03-07T12:01:35.467Z,807.13
2018-03-07T12:04:03.007Z,861.73
2018-03-07T12:06:30.794Z,877.33
2018-03-07T12:08:58.454Z,863.43
2018-03-07T12:11:25.910Z,904.57
2018-03-07T12:13:53.410Z,884.87
2018-03-07T12:16:21.167Z,890.80
2018-03-07T12:18:48.888Z,917.33
2018-03-07T12:21:16.355Z,930.97
2018-03-07T12:23:43.930Z,904.50
2018-03-07T12:26:11.709Z,899.20
2018-03-07T12:28:39.467Z,883.33
2018-03-07T12:31:07.446Z,871.93
2018-03-07T12:33:36.203Z,902.80
2018-03-07T12:36:03.831Z,883.27
2018-03-07T12:38:32.353Z,884.50
2018-03-07T12:40:59.801Z,880.43
2018-03-07T12:43:27.270Z,884.87
2018-03-07T12:45:54.762Z,898.03
2018-03-07T12:48:22.372Z,878.77
2018-03-07T12:50:50.225Z,894.33
2018-03-07T12:53:17.939Z,893.93
2018-03-07T12:55:45.638Z,909.83
2018-03-07T12:58:13.154Z,887.00
2018-03-07T13:00:40.830Z,903.20
2018-03-07T13:03:08.348Z,888.20
2018-03-07T13:05:36.117Z,911.10
2018-03-07T13:08:03.579Z,893.87
2018-03-07T13:10:31.025Z,886.70
2018-03-07T13:12:58.610Z,886.97
2018-03-07T13:15:26.051Z,877.40
2018-03-07T13:17:53.517Z,862.43
2018-03-07T13:20:21.410Z,875.83
2018-03-07T13:22:49.038Z,864.33
2018-03-07T13:25:16.507Z,856.53
2018-03-07T13:27:44.178Z,853.87
2018-03-07T13:30:12.037Z,860.63
2018-03-07T13:32:39.847Z,840.07
2018-03-07T13:35:07.562Z,843.40
2018-03-07T13:37:35.315Z,842.50
2018-03-07T13:40:03.116Z,831.57
2018-03-07T13:42:30.731Z,844.00
2018-03-07T13:44:58.431Z,831.60
2018-03-07T13:47:25.905Z,825.77
2018-03-07T13:49:53.410Z,820.57
2018-03-07T13:52:21.221Z,819.70
2018-03-07T13:54:48.675Z,823.40
2018-03-07T13:57:16.131Z,829.30
2018-03-07T13:59:43.855Z,829.37
2018-03-07T14:02:11.304Z,833.93
2018-03-07T14:04:39.067Z,742.53
2018-03-07T14:07:06.847Z,786.73
2018-03-07T14:09:34.290Z,796.30
2018-03-07T14:12:01.796Z,769.70
2018-03-07T14:14:29.249Z,771.07
2018-03-07T14:16:56.701Z,774.43
2018-03-07T14:19:24.177Z,761.00
2018-03-07T14:21:51.933Z,754.97
2018-03-07T14:24:19.766Z,755.37
2018-03-07T14:26:47.225Z,731.00
2018-03-07T14:29:14.701Z,731.93
2018-03-07T14:31:42.169Z,715.50
2018-03-07T14:34:10.093Z,733.70
2018-03-07T14:36:37.522Z,731.40
2018-03-07T14:39:06.239Z,715.63
2018-03-07T14:41:33.998Z,688.80
2018-03-07T14:44:02.402Z,700.90
2018-03-07T14:46:29.867Z,688.97
2018-03-07T14:48:57.527Z,689.00
2018-03-07T14:51:25.183Z,691.93
2018-03-07T14:53:52.942Z,670.47
2018-03-07T14:56:20.588Z,673.07
2018-03-07T14:58:48.038Z,676.17
2018-03-07T15:01:15.625Z,671.40
2018-03-07T15:03:43.407Z,690.97
2018-03-07T15:06:11.178Z,675.97
2018-03-07T15:08:38.726Z,672.10
2018-03-07T15:11:06.181Z,670.83
2018-03-07T15:13:34.019Z,666.87
2018-03-07T15:16:01.461Z,669.50
2018-03-07T15:18:28.931Z,662.33
2018-03-07T15:20:56.563Z,682.62
2018-03-07T15:23:24.586Z,689.67
2018-03-07T15:25:52.347Z,656.42
2018-03-07T15:28:19.919Z,651.28
2018-03-07T15:30:47.572Z,658.33
2018-03-07T15:33:15.247Z,665.70
2018-03-07T15:35:42.699Z,662.80
2018-03-07T15:38:11.169Z,646.63
2018-03-07T15:40:38.828Z,643.72
2018-03-07T15:43:06.690Z,648.05
2018-03-07T15:45:34.158Z,669.65
2018-03-07T15:48:01.605Z,645.97
2018-03-07T15:50:29.238Z,657.40
2018-03-07T15:52:56.826Z,551.00
2018-03-07T15:55:24.601Z,637.47
2018-03-07T15:57:52.245Z,538.50
2018-03-07T16:00:19.716Z,646.08
2018-03-07T16:02:47.280Z,646.80
2018-03-07T16:05:15.035Z,583.97
2018-03-07T16:07:42.685Z,513.15
2018-03-07T16:10:10.126Z,532.53
2018-03-07T16:12:37.896Z,696.92
2018-03-07T16:15:05.378Z,568.30
2018-03-07T16:17:33.226Z,526.92
2018-03-07T16:20:00.688Z,518.10
2018-03-07T16:22:28.652Z,699.60
2018-03-07T16:24:56.214Z,545.15
2018-03-07T16:27:25.220Z,637.53
2018-03-07T16:29:52.974Z,681.25
2018-03-07T16:32:20.460Z,521.12
2018-03-07T16:34:48.098Z,584.25
2018-03-07T16:37:15.665Z,616.15
2018-03-07T16:39:43.426Z,662.38
2018-03-07T16:42:11.190Z,486.12
2018-03-07T16:44:38.842Z,479.85
2018-03-07T16:47:06.698Z,576.80
2018-03-07T16:49:34.447Z,715.95
2018-03-07T16:52:02.125Z,692.30
2018-03-07T16:54:29.894Z,587.15
2018-03-07T16:56:57.502Z,548.95
2018-03-07T16:59:28.005Z,549.10
2018-03-07T17:01:55.633Z,516.10
2018-03-07T17:04:23.535Z,596.97
2018-03-07T17:06:51.194Z,479.75
2018-03-07T17:09:18.669Z,535.42
2018-03-07T17:11:46.520Z,562.20
2018-03-07T17:14:14.191Z,721.37
2018-03-07T17:16:41.877Z,524.03
2018-03-07T17:19:10.728Z,125.15
2018-03-07T17:21:38.386Z,51.85
2018-03-07T17:24:07.087Z,35.83
2018-03-07T17:26:34.942Z,166.25
2018-03-07T17:29:02.399Z,539.53
2018-03-07T17:31:30.471Z,505.05
2018-03-07T17:33:58.410Z,47.60
2018-03-07T17:36:25.889Z,50.38
2018-03-07T17:38:53.763Z,54.92
2018-03-07T17:41:21.716Z,52.90
2018-03-07T17:43:49.180Z,38.15
2018-03-07T17:46:16.629Z,44.90
2018-03-07T17:48:44.194Z,121.95
2018-03-07T17:51:11.848Z,112.53
2018-03-07T17:53:39.322Z,42.22
2018-03-07T17:56:09.380Z,28.83
2018-03-07T17:58:37.093Z,22.62
2018-03-07T18:01:04.765Z,32.05
2018-03-07T18:03:32.213Z,20.62
2018-03-07T18:05:59.650Z,50.15
2018-03-07T18:08:27.096Z,32.33
2018-03-07T18:10:55.513Z,19.12
2018-03-07T18:13:23.439Z,22.05
2018-03-07T18:15:51.863Z,40.55
2018-03-07T18:18:19.839Z,63.58
2018-03-07T18:20:47.601Z,57.97
2018-03-07T18:23:17.834Z,111.40
2018-03-07T18:25:45.511Z,44.58
2018-03-07T18:28:13.218Z,118.60
2018-03-07T18:30:41.110Z,30.05
2018-03-07T18:33:08.878Z,25.88
2018-03-07T18:35:36.322Z,41.63
2018-03-07T18:38:04.415Z,51.08
2018-03-07T18:40:32.003Z,214.82
2018-03-07T18:42:59.522Z,66.78
2018-03-07T18:45:27.393Z,668.37
2018-03-07T18:47:55.066Z,618.17
2018-03-07T18:50:22.522Z,617.78
2018-03-07T18:52:50.070Z,521.65
2018-03-07T18:55:17.730Z,517.10
2018-03-07T18:57:45.176Z,491.65
2018-03-07T19:00:12.721Z,506.60
2018-03-07T19:02:40.166Z,604.75
2018-03-07T19:05:07.974Z,602.62
2018-03-07T19:07:35.766Z,619.28
2018-03-07T19:10:03.384Z,486.42
2018-03-07T19:12:30.874Z,494.98
2018-03-07T19:14:59.097Z,484.55
2018-03-07T19:17:26.546Z,601.90
2018-03-07T19:19:54.250Z,472.30
2018-03-07T19:22:22.023Z,530.75
2018-03-07T19:24:49.508Z,414.42
2018-03-07T19:27:16.952Z,508.85
2018-03-07T19:29:44.493Z,495.48
2018-03-07T19:32:12.156Z,447.08
2018-03-07T19:34:39.801Z,461.77
2018-03-07T19:37:07.254Z,551.42
2018-03-07T19:39:34.826Z,490.95
2018-03-07T19:42:02.502Z,530.80
2018-03-07T19:44:30.368Z,66.30
2018-03-07T19:46:58.135Z,490.00
2018-03-07T19:49:25.889Z,226.57
2018-03-07T19:51:53.528Z,486.55
2018-03-07T19:54:21.309Z,517.60
2018-03-07T19:56:49.184Z,637.05
2018-03-07T19:59:16.654Z,488.20
2018-03-07T20:01:44.593Z,444.70
2018-03-07T20:04:12.169Z,488.05
2018-03-07T20:06:39.925Z,502.33
2018-03-07T20:09:07.676Z,413.83
2018-03-07T20:11:35.122Z,488.45
2018-03-07T20:14:02.920Z,504.17
2018-03-07T20:16:30.634Z,415.83
2018-03-07T20:18:58.074Z,528.80
2018-03-07T20:21:26.826Z,504.27
2018-03-07T20:23:54.586Z,497.85
2018-03-07T20:26:22.043Z,594.10
2018-03-07T20:28:49.978Z,596.00
2018-03-07T20:31:17.578Z,600.17
2018-03-07T20:33:45.028Z,481.42
2018-03-07T20:36:12.474Z,486.80
2018-03-07T20:38:40.259Z,391.73
2018-03-07T20:41:07.705Z,460.08
2018-03-07T20:43:35.778Z,490.27
2018-03-07T20:46:03.316Z,597.37
2018-03-07T20:48:31.315Z,594.92
2018-03-07T20:50:59.003Z,596.75
2018-03-07T20:53:26.582Z,482.23
2018-03-07T20:55:55.271Z,596.75
2018-03-07T20:58:23.287Z,602.45
2018-03-07T21:00:52.273Z,604.33
2018-03-07T21:03:20.527Z,609.72
2018-03-07T21:05:50.178Z,617.80
2018-03-07T21:08:19.877Z,623.78
2018-03-07T21:10:48.701Z,599.60
2018-03-07T21:13:16.649Z,638.47
2018-03-07T21:15:45.622Z,606.45
2018-03-07T21:18:13.103Z,603.38
2018-03-07T21:20:40.871Z,609.78
2018-03-07T21:23:08.619Z,610.03
2018-03-07T21:25:36.258Z,601.67
2018-03-07T21:28:03.701Z,604.08
2018-03-07T21:30:31.293Z,502.75
2018-03-07T21:32:58.886Z,506.92
2018-03-07T21:35:26.802Z,598.42
2018-03-07T21:37:54.522Z,603.40
2018-03-07T21:40:22.238Z,606.70
2018-03-07T21:42:49.817Z,602.75
2018-03-07T21:45:17.276Z,611.12
2018-03-07T21:47:44.744Z,609.53
2018-03-07T21:50:12.477Z,603.05
2018-03-07T21:52:39.931Z,611.03
2018-03-07T21:55:07.587Z,611.92
2018-03-07T21:57:35.331Z,608.05
2018-03-07T22:00:02.882Z,601.00
2018-03-07T22:02:30.695Z,605.87
2018-03-07T22:04:58.363Z,605.20
2018-03-07T22:07:26.521Z,600.97
2018-03-07T22:09:54.295Z,600.80
2018-03-07T22:12:22.060Z,606.22
2018-03-07T22:14:49.727Z,607.40
2018-03-07T22:17:17.587Z,608.35
2018-03-07T22:19:45.050Z,499.73
2018-03-07T22:22:12.903Z,599.60
2018-03-07T22:24:40.455Z,595.20
2018-03-07T22:27:08.334Z,600.78
2018-03-07T22:29:36.361Z,603.70
2018-03-07T22:32:03.851Z,602.15
2018-03-07T22:34:31.315Z,593.85
2018-03-07T22:36:59.103Z,601.60
2018-03-07T22:39:26.651Z,468.00
2018-03-07T22:41:54.638Z,589.87
2018-03-07T22:44:22.086Z,598.85
2018-03-07T22:46:49.848Z,595.72
2018-03-07T22:49:17.678Z,595.78
2018-03-07T22:51:45.126Z,492.50
2018-03-07T22:54:12.674Z,460.23
2018-03-07T22:56:40.991Z,488.77
2018-03-07T22:59:08.827Z,591.28
2018-03-07T23:01:36.533Z,589.75
2018-03-07T23:04:04.186Z,586.53
2018-03-07T23:06:31.836Z,589.17
2018-03-07T23:08:59.715Z,589.47
2018-03-07T23:11:27.481Z,587.35
2018-03-07T23:13:55.247Z,590.10
2018-03-07T23:16:22.973Z,488.37
2018-03-07T23:18:52.290Z,588.45
2018-03-07T23:21:19.967Z,593.30
2018-03-07T23:23:47.415Z,602.58
2018-03-07T23:26:15.167Z,589.00
2018-03-07T23:28:42.935Z,600.80
2018-03-07T23:31:10.403Z,586.12
2018-03-07T23:33:37.967Z,584.92
2018-03-07T23:36:06.038Z,590.75
2018-03-07T23:38:34.197Z,586.15
2018-03-07T23:41:02.181Z,589.42
2018-03-07T23:43:29.737Z,491.35
2018-03-07T23:45:57.478Z,588.63
2018-03-07T23:48:25.292Z,592.22
2018-03-07T23:50:52.815Z,593.83
2018-03-07T23:53:20.312Z,589.58
2018-03-07T23:55:47.782Z,587.85
2018-03-07T23:58:15.617Z,491.77
